createdAt,value
2019-03-28T00:00:42.125Z,8.80
2019-03-28T00:03:15.245Z,9.05
2019-03-28T00:05:48.563Z,9.60
2019-03-28T00:08:29.122Z,8.98
2019-03-28T00:11:04.654Z,8.98
2019-03-28T00:13:37.256Z,8.50
2019-03-28T00:16:11.453Z,8.65
2019-03-28T00:18:45.893Z,8.67
2019-03-28T00:21:19.519Z,8.55
2019-03-28T00:23:59.495Z,7.97
2019-03-28T00:26:32.044Z,8.53
2019-03-28T00:29:04.241Z,9.33
2019-03-28T00:31:47.781Z,9.28
2019-03-28T00:34:19.157Z,8.88
2019-03-28T00:36:53.106Z,8.53
2019-03-28T00:39:25.530Z,8.75
2019-03-28T00:41:58.050Z,9.13
2019-03-28T00:44:31.171Z,8.53
2019-03-28T00:47:14.502Z,8.80
2019-03-28T00:49:51.472Z,8.35
2019-03-28T00:52:24.526Z,8.85
2019-03-28T00:54:58.300Z,9.35
2019-03-28T00:57:30.329Z,9.48
2019-03-28T01:00:02.499Z,9.00
2019-03-28T01:02:36.384Z,8.48
2019-03-28T01:05:09.514Z,8.93
2019-03-28T01:07:41.725Z,9.38
2019-03-28T01:10:14.183Z,8.90
2019-03-28T01:12:46.805Z,8.75
2019-03-28T01:15:19.281Z,9.20
2019-03-28T01:17:55.185Z,9.15
2019-03-28T01:20:27.510Z,9.25
2019-03-28T01:23:00.072Z,9.00
2019-03-28T01:25:36.971Z,9.58
2019-03-28T01:28:13.722Z,8.90
2019-03-28T01:30:49.159Z,9.05
2019-03-28T01:33:22.596Z,9.28
2019-03-28T01:38:27.186Z,8.88
2019-03-28T01:40:59.838Z,8.35
2019-03-28T01:43:32.196Z,9.10
2019-03-28T01:46:05.766Z,9.23
2019-03-28T01:48:41.246Z,8.70
2019-03-28T01:51:19.707Z,8.68
2019-03-28T01:53:48.134Z,9.20
2019-03-28T01:56:26.408Z,9.53
2019-03-28T01:59:07.164Z,9.60
2019-03-28T02:01:40.535Z,8.90
2019-03-28T02:04:18.770Z,8.58
2019-03-28T02:06:51.102Z,8.78
2019-03-28T02:09:23.435Z,9.63
2019-03-28T02:11:57.587Z,9.20
2019-03-28T02:14:31.851Z,9.88
2019-03-28T02:17:12.177Z,9.43
2019-03-28T02:19:46.241Z,8.28
2019-03-28T02:22:22.435Z,8.70
2019-03-28T02:24:54.845Z,9.13
2019-03-28T02:27:27.049Z,9.13
2019-03-28T02:29:59.239Z,8.75
2019-03-28T02:32:34.217Z,9.08
2019-03-28T02:35:08.142Z,9.15
2019-03-28T02:37:40.475Z,8.85
2019-03-28T02:40:17.355Z,9.28
2019-03-28T02:42:51.748Z,8.93
2019-03-28T02:45:23.803Z,9.28
2019-03-28T02:48:01.666Z,10.20
2019-03-28T02:50:34.951Z,9.15
2019-03-28T02:53:08.190Z,9.70
2019-03-28T02:55:45.885Z,9.68
2019-03-28T02:58:21.111Z,9.13
2019-03-28T03:00:53.497Z,9.53
2019-03-28T03:03:25.900Z,7.83
2019-03-28T03:05:58.240Z,9.70
2019-03-28T03:08:41.949Z,8.90
2019-03-28T03:13:45.883Z,9.40
2019-03-28T03:16:20.320Z,9.23
2019-03-28T03:18:52.904Z,8.63
2019-03-28T03:21:25.128Z,8.48
2019-03-28T03:23:57.430Z,8.90
2019-03-28T03:26:31.723Z,9.33
2019-03-28T03:29:03.816Z,9.73
2019-03-28T03:31:37.445Z,8.83
2019-03-28T03:34:13.203Z,9.18
2019-03-28T03:36:48.907Z,9.40
2019-03-28T03:39:21.667Z,9.10
2019-03-28T03:41:55.060Z,8.93
2019-03-28T03:44:27.157Z,8.95
2019-03-28T03:47:02.744Z,8.48
2019-03-28T03:49:34.724Z,9.35
2019-03-28T03:52:07.471Z,9.08
2019-03-28T03:54:42.048Z,8.58
2019-03-28T03:57:14.456Z,9.40
2019-03-28T03:59:51.393Z,9.50
2019-03-28T04:02:25.531Z,8.95
2019-03-28T04:04:57.943Z,8.53
2019-03-28T04:07:34.593Z,9.58
2019-03-28T04:10:06.986Z,8.70
2019-03-28T04:12:39.858Z,9.38
2019-03-28T04:15:20.407Z,9.63
2019-03-28T04:17:53.057Z,9.90
2019-03-28T04:20:28.496Z,10.85
2019-03-28T04:23:01.116Z,10.82
2019-03-28T04:25:35.176Z,9.43
2019-03-28T04:28:30.710Z,10.37
2019-03-28T04:30:50.762Z,9.65
2019-03-28T04:33:23.970Z,10.58
2019-03-28T04:35:58.655Z,10.30
2019-03-28T04:38:34.685Z,10.50
2019-03-28T04:41:10.469Z,9.93
2019-03-28T04:43:44.135Z,10.58
2019-03-28T04:46:22.374Z,10.58
2019-03-28T04:48:55.985Z,11.18
2019-03-28T04:51:32.675Z,10.63
2019-03-28T04:54:04.689Z,11.10
2019-03-28T04:56:37.009Z,11.40
2019-03-28T04:59:13.736Z,10.43
2019-03-28T05:01:59.692Z,10.75
2019-03-28T05:04:25.445Z,10.82
2019-03-28T05:06:57.813Z,11.55
2019-03-28T05:09:29.799Z,10.85
2019-03-28T05:12:02.855Z,11.03
2019-03-28T05:14:38.758Z,11.15
2019-03-28T05:17:12.404Z,11.03
2019-03-28T05:19:45.655Z,10.93
2019-03-28T05:22:41.222Z,10.53
2019-03-28T05:25:20.346Z,11.73
2019-03-28T05:27:59.748Z,11.03
2019-03-28T05:30:43.460Z,11.18
2019-03-28T05:33:19.631Z,11.85
2019-03-28T05:35:52.349Z,11.45
2019-03-28T05:38:28.395Z,11.68
2019-03-28T05:41:01.843Z,11.22
2019-03-28T05:43:41.941Z,12.55
2019-03-28T05:46:28.119Z,11.38
2019-03-28T05:49:05.345Z,11.45
2019-03-28T05:51:37.673Z,11.18
2019-03-28T05:54:13.411Z,10.85
2019-03-28T05:56:49.306Z,12.90
2019-03-28T05:59:22.173Z,12.70
2019-03-28T06:02:00.557Z,13.10
2019-03-28T06:04:35.369Z,13.30
2019-03-28T06:07:08.884Z,13.78
2019-03-28T06:09:42.837Z,12.28
2019-03-28T06:12:18.798Z,12.35
2019-03-28T06:14:49.894Z,12.05
2019-03-28T06:17:28.434Z,12.47
2019-03-28T06:20:01.671Z,12.23
2019-03-28T06:22:35.433Z,13.25
2019-03-28T06:25:09.433Z,12.47
2019-03-28T06:27:41.766Z,12.58
2019-03-28T06:30:14.279Z,13.20
2019-03-28T06:32:48.078Z,13.03
2019-03-28T06:35:22.020Z,12.93
2019-03-28T06:37:54.514Z,13.28
2019-03-28T06:40:27.008Z,13.60
2019-03-28T06:43:00.145Z,13.10
2019-03-28T06:45:35.664Z,14.00
2019-03-28T06:48:13.197Z,12.55
2019-03-28T06:50:46.523Z,13.38
2019-03-28T06:56:05.180Z,11.88
2019-03-28T06:58:37.978Z,11.85
2019-03-28T07:01:12.243Z,12.15
2019-03-28T07:03:47.261Z,11.97
2019-03-28T07:06:19.743Z,12.53
2019-03-28T07:08:55.154Z,13.20
2019-03-28T07:11:28.440Z,12.45
2019-03-28T07:16:52.609Z,13.22
2019-03-28T07:19:24.873Z,13.85
2019-03-28T07:21:57.448Z,13.50
2019-03-28T07:24:31.192Z,13.57
2019-03-28T07:27:12.060Z,12.47
2019-03-28T07:29:56.587Z,12.58
2019-03-28T07:32:29.655Z,13.25
2019-03-28T07:35:04.289Z,13.20
2019-03-28T07:37:43.722Z,13.98
2019-03-28T07:40:33.391Z,16.55
2019-03-28T07:43:39.349Z,13.40
2019-03-28T07:46:25.031Z,14.83
2019-03-28T07:49:25.146Z,14.50
2019-03-28T07:52:26.007Z,14.63
2019-03-28T07:55:47.103Z,14.30
2019-03-28T07:58:29.292Z,14.87
2019-03-28T08:05:19.438Z,14.70
2019-03-28T08:08:19.246Z,14.50
2019-03-28T08:10:54.044Z,14.63
2019-03-28T08:13:27.528Z,14.38
2019-03-28T08:16:00.248Z,13.88
2019-03-28T08:18:53.150Z,13.32
2019-03-28T08:21:39.446Z,13.35
2019-03-28T08:24:23.442Z,13.55
2019-03-28T08:27:29.602Z,12.82
2019-03-28T08:30:47.817Z,12.37
2019-03-28T08:37:05.126Z,11.22
2019-03-28T08:39:55.670Z,11.35
2019-03-28T08:42:43.103Z,11.63
2019-03-28T08:45:39.366Z,11.57
2019-03-28T08:48:46.686Z,9.95
2019-03-28T08:51:42.795Z,9.93
2019-03-28T08:54:33.288Z,10.88
2019-03-28T08:57:09.735Z,10.45
2019-03-28T09:00:01.305Z,9.88
2019-03-28T09:02:44.926Z,10.00
2019-03-28T09:05:47.639Z,9.23
2019-03-28T09:08:20.918Z,9.48
2019-03-28T09:10:52.794Z,8.93
2019-03-28T09:13:26.201Z,10.03
2019-03-28T09:18:35.390Z,9.15
2019-03-28T09:21:07.539Z,10.20
2019-03-28T09:23:39.881Z,8.98
2019-03-28T09:26:12.188Z,15.93
2019-03-28T09:28:44.314Z,9.38
2019-03-28T09:31:20.196Z,8.40
2019-03-28T09:33:51.537Z,8.60
2019-03-28T09:36:24.675Z,8.90
2019-03-28T09:38:56.614Z,8.70
2019-03-28T09:41:29.389Z,8.25
2019-03-28T09:44:02.173Z,8.38
2019-03-28T09:46:34.701Z,8.48
2019-03-28T09:49:06.589Z,8.87
2019-03-28T09:51:39.543Z,7.90
2019-03-28T09:54:11.439Z,8.18
2019-03-28T09:56:43.761Z,7.58
2019-03-28T09:59:16.361Z,7.45
2019-03-28T10:01:48.400Z,7.90
2019-03-28T10:04:20.621Z,7.67
2019-03-28T10:06:52.576Z,7.72
2019-03-28T10:09:24.545Z,7.08
2019-03-28T10:11:56.893Z,7.15
2019-03-28T10:14:29.953Z,8.28
2019-03-28T10:17:02.017Z,7.45
2019-03-28T10:19:33.947Z,9.33
2019-03-28T10:22:05.893Z,7.35
2019-03-28T10:24:38.190Z,7.65
2019-03-28T10:27:10.116Z,7.67
2019-03-28T10:29:41.983Z,6.47
2019-03-28T10:32:15.384Z,7.62
2019-03-28T10:34:49.082Z,7.25
2019-03-28T10:37:21.653Z,7.87
2019-03-28T10:39:53.686Z,7.28
2019-03-28T10:42:26.527Z,7.97
2019-03-28T10:44:59.067Z,7.90
2019-03-28T10:47:31.470Z,7.33
2019-03-28T10:50:05.040Z,7.37
2019-03-28T10:52:37.153Z,7.40
2019-03-28T10:55:10.588Z,7.03
2019-03-28T10:57:42.610Z,7.22
2019-03-28T11:00:24.001Z,6.85
2019-03-28T11:02:50.448Z,5.70
2019-03-28T11:05:22.526Z,5.05
2019-03-28T11:07:54.735Z,6.00
2019-03-28T11:10:30.237Z,6.40
2019-03-28T11:13:00.422Z,6.50
2019-03-28T11:15:32.900Z,11.50
2019-03-28T11:18:04.893Z,5.90
2019-03-28T11:20:39.813Z,5.42
2019-03-28T11:23:10.616Z,5.10
2019-03-28T11:25:42.582Z,4.47
2019-03-28T11:28:15.102Z,4.53
2019-03-28T11:30:51.588Z,4.45
2019-03-28T11:33:24.657Z,4.12
2019-03-28T11:35:57.838Z,5.00
2019-03-28T11:38:30.257Z,4.20
2019-03-28T11:41:02.281Z,4.40
2019-03-28T11:43:34.530Z,4.17
2019-03-28T11:46:06.442Z,4.80
2019-03-28T11:48:41.798Z,4.40
2019-03-28T11:51:13.813Z,4.53
2019-03-28T11:53:46.332Z,4.53
2019-03-28T11:56:20.020Z,5.10
2019-03-28T11:58:52.451Z,4.87
2019-03-28T12:01:25.127Z,5.87
2019-03-28T12:03:57.069Z,5.67
2019-03-28T12:06:29.459Z,6.87
2019-03-28T12:09:02.558Z,6.50
2019-03-28T12:11:36.531Z,6.85
2019-03-28T12:14:08.933Z,6.37
2019-03-28T12:16:41.209Z,6.40
2019-03-28T12:19:14.104Z,7.35
2019-03-28T12:21:47.072Z,6.97
2019-03-28T12:24:19.553Z,6.75
2019-03-28T12:26:52.050Z,6.55
2019-03-28T12:29:24.104Z,7.00
2019-03-28T12:31:56.941Z,8.28
2019-03-28T12:34:29.471Z,7.28
2019-03-28T12:37:01.790Z,7.17
2019-03-28T12:39:34.313Z,6.78
2019-03-28T12:42:06.760Z,7.40
2019-03-28T12:44:39.715Z,7.03
2019-03-28T12:47:11.754Z,7.20
2019-03-28T12:49:44.234Z,7.17
2019-03-28T12:52:17.295Z,7.97
2019-03-28T12:54:49.767Z,7.97
2019-03-28T12:57:21.673Z,8.00
2019-03-28T12:59:54.060Z,7.15
2019-03-28T13:02:31.507Z,7.55
2019-03-28T13:04:59.736Z,8.50
2019-03-28T13:07:32.106Z,7.50
2019-03-28T13:10:05.073Z,7.47
2019-03-28T13:12:37.730Z,7.55
2019-03-28T13:15:10.108Z,8.58
2019-03-28T13:17:42.463Z,8.80
2019-03-28T13:20:16.078Z,7.53
2019-03-28T13:22:51.914Z,7.55
2019-03-28T13:25:22.865Z,7.97
2019-03-28T13:27:55.335Z,7.67
2019-03-28T13:30:27.752Z,7.17
2019-03-28T13:33:00.095Z,7.20
2019-03-28T13:35:34.858Z,6.60
2019-03-28T13:38:05.696Z,6.60
2019-03-28T13:40:38.596Z,7.20
2019-03-28T13:43:10.955Z,7.17
2019-03-28T13:45:43.327Z,7.50
2019-03-28T13:48:15.303Z,6.62
2019-03-28T13:50:48.049Z,7.42
2019-03-28T13:53:19.974Z,7.95
2019-03-28T13:55:52.366Z,7.80
2019-03-28T13:58:25.554Z,7.30
2019-03-28T14:03:28.809Z,6.87
2019-03-28T14:06:00.799Z,6.97
2019-03-28T14:08:33.530Z,6.70
2019-03-28T14:11:05.520Z,6.40
2019-03-28T14:13:37.994Z,6.47
2019-03-28T14:16:09.928Z,5.95
2019-03-28T14:18:41.897Z,7.72
2019-03-28T14:21:14.826Z,7.10
2019-03-28T14:23:46.822Z,6.37
2019-03-28T14:26:19.236Z,6.80
2019-03-28T14:28:53.614Z,6.72
2019-03-28T14:31:26.637Z,6.95
2019-03-28T14:33:58.656Z,6.03
2019-03-28T14:36:35.025Z,5.78
2019-03-28T14:39:08.762Z,5.67
2019-03-28T14:41:41.505Z,6.85
2019-03-28T14:44:13.798Z,6.08
2019-03-28T14:46:46.111Z,6.28
2019-03-28T14:49:18.772Z,6.30
2019-03-28T14:51:50.814Z,6.00
2019-03-28T14:54:22.821Z,6.20
2019-03-28T14:56:56.053Z,7.85
2019-03-28T14:59:32.829Z,7.08
2019-03-28T15:02:03.680Z,5.92
2019-03-28T15:04:35.704Z,6.20
2019-03-28T15:07:08.675Z,5.17
2019-03-28T15:10:15.217Z,5.10
2019-03-28T15:25:56.494Z,4.83
2019-03-28T15:34:00.548Z,3.70
2019-03-28T15:37:28.242Z,4.12
2019-03-28T15:48:19.049Z,3.55
2019-03-28T16:06:46.889Z,4.05
2019-03-28T16:13:08.909Z,3.30
2019-03-28T16:19:49.672Z,3.40
2019-03-28T16:23:24.915Z,3.50
2019-03-28T16:27:06.693Z,3.72
2019-03-28T16:34:07.052Z,4.08
2019-03-28T16:38:21.291Z,4.22
2019-03-28T19:04:55.927Z,46.50
2019-03-28T19:07:29.033Z,58.28
2019-03-28T19:10:01.250Z,64.27
2019-03-28T19:12:35.208Z,58.38
2019-03-28T19:15:07.816Z,45.67
2019-03-28T19:17:40.848Z,46.98
2019-03-28T19:20:14.813Z,40.65
2019-03-28T19:22:50.066Z,33.30
2019-03-28T19:25:22.504Z,22.58
2019-03-28T19:27:55.237Z,16.17
2019-03-28T19:30:36.691Z,14.15
2019-03-28T19:33:10.171Z,8.83
2019-03-28T19:35:42.428Z,6.03
2019-03-28T19:38:16.696Z,4.72
2019-03-28T19:40:50.365Z,5.67
2019-03-28T19:43:23.224Z,4.37
2019-03-28T19:45:57.475Z,3.15
2019-03-28T19:48:29.929Z,3.58
2019-03-28T19:51:02.941Z,3.47
2019-03-28T19:53:35.824Z,3.37
2019-03-28T19:56:08.674Z,3.02
2019-03-28T19:58:41.111Z,2.70
2019-03-28T20:01:14.296Z,3.07
2019-03-28T20:03:47.187Z,2.70
2019-03-28T20:06:22.281Z,2.65
2019-03-28T20:08:54.298Z,2.75
2019-03-28T20:11:30.054Z,2.85
2019-03-28T20:14:03.277Z,3.17
2019-03-28T20:16:38.908Z,2.80
2019-03-28T20:19:11.719Z,3.00
2019-03-28T20:21:44.720Z,2.95
2019-03-28T20:24:17.171Z,3.20
2019-03-28T20:26:49.171Z,3.00
2019-03-28T20:29:33.351Z,3.15
2019-03-28T20:32:08.072Z,2.98
2019-03-28T20:34:40.191Z,2.98
2019-03-28T20:37:13.607Z,2.73
2019-03-28T20:39:50.737Z,2.92
2019-03-28T20:42:23.341Z,2.45
2019-03-28T20:44:56.241Z,2.95
2019-03-28T20:47:28.285Z,3.02
2019-03-28T20:50:01.487Z,3.17
2019-03-28T20:55:06.416Z,3.47
2019-03-28T20:57:40.418Z,2.90
2019-03-28T21:00:16.150Z,3.00
2019-03-28T21:02:49.076Z,2.80
2019-03-28T21:05:21.076Z,3.40
2019-03-28T21:07:54.420Z,2.77
2019-03-28T21:10:26.797Z,2.85
2019-03-28T21:12:59.596Z,3.10
2019-03-28T21:15:34.845Z,3.30
2019-03-28T21:18:07.614Z,3.15
2019-03-28T21:20:41.452Z,3.40
2019-03-28T21:23:13.851Z,2.98
2019-03-28T21:25:45.873Z,3.08
2019-03-28T21:28:18.206Z,3.25
2019-03-28T21:30:50.778Z,3.27
2019-03-28T21:33:24.320Z,3.40
2019-03-28T21:35:57.039Z,3.70
2019-03-28T21:38:30.134Z,3.60
2019-03-28T21:41:04.044Z,3.72
2019-03-28T21:43:36.890Z,9.23
2019-03-28T21:46:10.504Z,18.32
2019-03-28T21:48:43.153Z,48.35
2019-03-28T21:51:16.205Z,40.83
2019-03-28T21:53:48.218Z,41.15
2019-03-28T21:56:20.743Z,41.90
2019-03-28T21:58:56.889Z,29.35
2019-03-28T22:01:29.476Z,19.07
2019-03-28T22:04:03.534Z,16.40
2019-03-28T22:06:42.737Z,12.78
2019-03-28T22:09:11.038Z,10.88
2019-03-28T22:11:43.747Z,9.25
2019-03-28T22:14:17.193Z,8.68
2019-03-28T22:16:51.442Z,8.70
2019-03-28T22:19:25.903Z,8.03
2019-03-28T22:21:58.412Z,7.42
2019-03-28T22:24:30.722Z,6.37
2019-03-28T22:27:04.094Z,5.60
2019-03-28T22:32:07.189Z,4.95
2019-03-28T22:34:39.783Z,13.88
2019-03-28T22:37:12.159Z,54.43
2019-03-28T22:39:44.089Z,68.03
2019-03-28T22:42:16.273Z,62.08
2019-03-28T22:44:48.624Z,73.28
2019-03-28T22:47:20.624Z,105.53
2019-03-28T22:49:52.723Z,101.12
2019-03-28T22:52:25.759Z,77.58
2019-03-28T22:54:57.966Z,58.25
2019-03-28T22:57:31.054Z,45.60
2019-03-28T23:00:11.106Z,38.15
2019-03-28T23:02:45.166Z,30.70
2019-03-28T23:05:17.629Z,22.22
2019-03-28T23:07:50.013Z,22.97
2019-03-28T23:10:22.076Z,16.33
2019-03-28T23:12:54.633Z,13.62
2019-03-28T23:15:27.130Z,12.00
2019-03-28T23:17:59.983Z,9.77
2019-03-28T23:20:33.790Z,10.25
2019-03-28T23:23:08.270Z,9.45
2019-03-28T23:25:40.429Z,8.78
2019-03-28T23:28:12.478Z,8.63
2019-03-28T23:30:46.428Z,8.68
2019-03-28T23:33:19.241Z,6.70
2019-03-28T23:35:51.316Z,6.75
2019-03-28T23:38:24.029Z,6.03
2019-03-28T23:40:56.394Z,6.03
2019-03-28T23:43:28.307Z,5.47
2019-03-28T23:46:01.682Z,5.33
2019-03-28T23:48:38.136Z,5.45
2019-03-28T23:51:10.156Z,4.80
2019-03-28T23:53:44.494Z,4.83
2019-03-28T23:56:16.678Z,5.10
2019-03-28T23:58:48.621Z,5.03
